sensor_id;sensor_type;location;lat;lon;timestamp;temperature;humidity
19586;DHT22;9939;49.246;9.106;2023-03-22T00:02:24;8.50;99.90
19586;DHT22;9939;49.246;9.106;2023-03-22T00:04:54;8.60;99.90
19586;DHT22;9939;49.246;9.106;2023-03-22T00:07:21;8.80;99.90
19586;DHT22;9939;49.246;9.106;2023-03-22T00:09:48;8.80;99.90
19586;DHT22;9939;49.246;9.106;2023-03-22T00:12:15;8.80;99.90
19586;DHT22;9939;49.246;9.106;2023-03-22T00:14:42;8.80;99.90
19586;DHT22;9939;49.246;9.106;2023-03-22T00:17:08;8.80;99.90
19586;DHT22;9939;49.246;9.106;2023-03-22T00:19:35;8.80;99.90
19586;DHT22;9939;49.246;9.106;2023-03-22T00:22:02;8.90;99.90
19586;DHT22;9939;49.246;9.106;2023-03-22T00:24:31;9.00;99.90
19586;DHT22;9939;49.246;9.106;2023-03-22T00:26:58;9.10;99.90
19586;DHT22;9939;49.246;9.106;2023-03-22T00:29:26;9.10;99.90
19586;DHT22;9939;49.246;9.106;2023-03-22T00:31:53;9.00;99.90
19586;DHT22;9939;49.246;9.106;2023-03-22T00:34:21;9.00;99.90
19586;DHT22;9939;49.246;9.106;2023-03-22T00:36:48;9.00;99.90
19586;DHT22;9939;49.246;9.106;2023-03-22T00:39:15;9.00;99.90
19586;DHT22;9939;49.246;9.106;2023-03-22T00:41:41;9.10;99.90
19586;DHT22;9939;49.246;9.106;2023-03-22T00:44:10;9.10;99.90
19586;DHT22;9939;49.246;9.106;2023-03-22T00:46:37;9.10;99.90
19586;DHT22;9939;49.246;9.106;2023-03-22T00:49:04;9.20;99.90
19586;DHT22;9939;49.246;9.106;2023-03-22T00:51:32;9.20;99.90
19586;DHT22;9939;49.246;9.106;2023-03-22T00:53:59;9.20;99.90
19586;DHT22;9939;49.246;9.106;2023-03-22T00:56:26;9.20;99.90
19586;DHT22;9939;49.246;9.106;2023-03-22T00:59:08;9.40;99.90
19586;DHT22;9939;49.246;9.106;2023-03-22T01:01:35;9.30;99.90
19586;DHT22;9939;49.246;9.106;2023-03-22T01:04:02;9.40;99.90
19586;DHT22;9939;49.246;9.106;2023-03-22T01:06:33;9.30;99.90
19586;DHT22;9939;49.246;9.106;2023-03-22T01:09:01;9.20;99.90
19586;DHT22;9939;49.246;9.106;2023-03-22T01:11:27;9.20;99.90
19586;DHT22;9939;49.246;9.106;2023-03-22T01:13:54;9.20;99.90
19586;DHT22;9939;49.246;9.106;2023-03-22T01:16:21;9.10;99.90
19586;DHT22;9939;49.246;9.106;2023-03-22T01:18:48;9.10;99.90
19586;DHT22;9939;49.246;9.106;2023-03-22T01:21:15;9.10;99.90
19586;DHT22;9939;49.246;9.106;2023-03-22T01:23:42;9.10;99.90
19586;DHT22;9939;49.246;9.106;2023-03-22T01:26:09;9.10;99.90
19586;DHT22;9939;49.246;9.106;2023-03-22T01:28:36;9.10;99.90
19586;DHT22;9939;49.246;9.106;2023-03-22T01:31:06;9.10;99.90
19586;DHT22;9939;49.246;9.106;2023-03-22T01:33:33;9.10;99.90
19586;DHT22;9939;49.246;9.106;2023-03-22T01:36:00;9.10;99.90
19586;DHT22;9939;49.246;9.106;2023-03-22T01:38:27;9.10;99.90
19586;DHT22;9939;49.246;9.106;2023-03-22T01:40:57;9.10;99.90
19586;DHT22;9939;49.246;9.106;2023-03-22T01:43:26;9.10;99.90
19586;DHT22;9939;49.246;9.106;2023-03-22T01:45:55;9.10;99.90
19586;DHT22;9939;49.246;9.106;2023-03-22T01:48:27;9.10;99.90
19586;DHT22;9939;49.246;9.106;2023-03-22T01:53:26;9.10;99.90
19586;DHT22;9939;49.246;9.106;2023-03-22T01:55:54;9.10;99.90
19586;DHT22;9939;49.246;9.106;2023-03-22T01:58:28;9.10;99.90
19586;DHT22;9939;49.246;9.106;2023-03-22T02:00:58;9.00;99.90
19586;DHT22;9939;49.246;9.106;2023-03-22T02:03:47;8.80;99.90
19586;DHT22;9939;49.246;9.106;2023-03-22T02:06:16;8.60;99.90
19586;DHT22;9939;49.246;9.106;2023-03-22T02:08:47;8.40;99.90
19586;DHT22;9939;49.246;9.106;2023-03-22T02:11:20;8.40;99.90
19586;DHT22;9939;49.246;9.106;2023-03-22T02:13:55;8.10;99.90
19586;DHT22;9939;49.246;9.106;2023-03-22T02:40:57;7.30;99.90
19586;DHT22;9939;49.246;9.106;2023-03-22T02:43:50;7.20;99.90
19586;DHT22;9939;49.246;9.106;2023-03-22T02:46:18;7.20;99.90
19586;DHT22;9939;49.246;9.106;2023-03-22T02:51:24;7.00;99.90
19586;DHT22;9939;49.246;9.106;2023-03-22T02:54:06;7.00;99.90
19586;DHT22;9939;49.246;9.106;2023-03-22T02:56:36;7.00;99.90
19586;DHT22;9939;49.246;9.106;2023-03-22T02:59:07;7.00;99.90
19586;DHT22;9939;49.246;9.106;2023-03-22T03:01:38;7.00;99.90
19586;DHT22;9939;49.246;9.106;2023-03-22T03:04:10;7.10;99.90
19586;DHT22;9939;49.246;9.106;2023-03-22T03:06:39;7.30;99.90
19586;DHT22;9939;49.246;9.106;2023-03-22T03:09:12;7.30;99.90
19586;DHT22;9939;49.246;9.106;2023-03-22T03:11:44;7.40;99.90
19586;DHT22;9939;49.246;9.106;2023-03-22T03:14:22;7.50;99.90
19586;DHT22;9939;49.246;9.106;2023-03-22T03:16:55;7.70;99.90
19586;DHT22;9939;49.246;9.106;2023-03-22T03:19:28;7.80;99.90
19586;DHT22;9939;49.246;9.106;2023-03-22T03:27:34;8.10;99.90
19586;DHT22;9939;49.246;9.106;2023-03-22T03:32:35;8.30;99.90
19586;DHT22;9939;49.246;9.106;2023-03-22T03:37:54;8.40;99.90
19586;DHT22;9939;49.246;9.106;2023-03-22T03:40:31;8.40;99.90
19586;DHT22;9939;49.246;9.106;2023-03-22T03:43:00;8.30;99.90
19586;DHT22;9939;49.246;9.106;2023-03-22T03:45:29;8.30;99.90
19586;DHT22;9939;49.246;9.106;2023-03-22T03:47:57;8.30;99.90
19586;DHT22;9939;49.246;9.106;2023-03-22T03:50:25;8.20;99.90
19586;DHT22;9939;49.246;9.106;2023-03-22T03:52:54;8.20;99.90
19586;DHT22;9939;49.246;9.106;2023-03-22T03:55:21;8.20;99.90
19586;DHT22;9939;49.246;9.106;2023-03-22T03:57:49;8.60;99.90
19586;DHT22;9939;49.246;9.106;2023-03-22T04:00:16;8.50;99.90
19586;DHT22;9939;49.246;9.106;2023-03-22T04:03:03;8.50;99.90
19586;DHT22;9939;49.246;9.106;2023-03-22T04:05:54;8.60;99.90
19586;DHT22;9939;49.246;9.106;2023-03-22T04:08:21;8.40;99.90
19586;DHT22;9939;49.246;9.106;2023-03-22T04:10:49;8.40;99.90
19586;DHT22;9939;49.246;9.106;2023-03-22T04:13:20;8.40;99.90
19586;DHT22;9939;49.246;9.106;2023-03-22T04:15:51;8.60;99.90
19586;DHT22;9939;49.246;9.106;2023-03-22T04:18:19;8.60;99.90
19586;DHT22;9939;49.246;9.106;2023-03-22T04:20:47;8.50;99.90
19586;DHT22;9939;49.246;9.106;2023-03-22T04:23:15;8.40;99.90
19586;DHT22;9939;49.246;9.106;2023-03-22T04:25:44;8.30;99.90
19586;DHT22;9939;49.246;9.106;2023-03-22T04:28:22;8.20;99.90
19586;DHT22;9939;49.246;9.106;2023-03-22T04:30:49;8.20;99.90
19586;DHT22;9939;49.246;9.106;2023-03-22T04:33:50;8.10;99.90
19586;DHT22;9939;49.246;9.106;2023-03-22T04:36:34;8.30;99.90
19586;DHT22;9939;49.246;9.106;2023-03-22T04:39:17;8.40;99.90
19586;DHT22;9939;49.246;9.106;2023-03-22T04:41:53;8.40;99.90
19586;DHT22;9939;49.246;9.106;2023-03-22T04:44:20;8.50;99.90
19586;DHT22;9939;49.246;9.106;2023-03-22T04:46:49;8.50;99.90
19586;DHT22;9939;49.246;9.106;2023-03-22T04:49:16;8.60;99.90
19586;DHT22;9939;49.246;9.106;2023-03-22T04:51:43;8.50;99.90
19586;DHT22;9939;49.246;9.106;2023-03-22T04:54:18;8.40;99.90
19586;DHT22;9939;49.246;9.106;2023-03-22T04:56:45;8.30;99.90
19586;DHT22;9939;49.246;9.106;2023-03-22T04:59:14;8.30;99.90
19586;DHT22;9939;49.246;9.106;2023-03-22T05:01:45;8.20;99.90
19586;DHT22;9939;49.246;9.106;2023-03-22T05:04:16;8.10;99.90
19586;DHT22;9939;49.246;9.106;2023-03-22T05:06:43;8.10;99.90
19586;DHT22;9939;49.246;9.106;2023-03-22T05:09:18;8.00;99.90
19586;DHT22;9939;49.246;9.106;2023-03-22T05:11:50;7.90;99.90
19586;DHT22;9939;49.246;9.106;2023-03-22T05:14:31;7.90;99.90
19586;DHT22;9939;49.246;9.106;2023-03-22T05:16:59;7.90;99.90
19586;DHT22;9939;49.246;9.106;2023-03-22T05:19:26;7.90;99.90
19586;DHT22;9939;49.246;9.106;2023-03-22T05:21:53;8.00;99.90
19586;DHT22;9939;49.246;9.106;2023-03-22T05:24:37;8.10;99.90
19586;DHT22;9939;49.246;9.106;2023-03-22T05:27:05;8.10;99.90
19586;DHT22;9939;49.246;9.106;2023-03-22T05:29:32;8.20;99.90
19586;DHT22;9939;49.246;9.106;2023-03-22T05:32:09;8.40;99.90
19586;DHT22;9939;49.246;9.106;2023-03-22T05:34:36;8.50;99.90
19586;DHT22;9939;49.246;9.106;2023-03-22T05:37:15;8.50;99.90
19586;DHT22;9939;49.246;9.106;2023-03-22T05:39:55;8.50;99.90
19586;DHT22;9939;49.246;9.106;2023-03-22T05:42:31;8.50;99.90
19586;DHT22;9939;49.246;9.106;2023-03-22T05:45:01;8.30;99.90
19586;DHT22;9939;49.246;9.106;2023-03-22T05:47:28;8.40;99.90
19586;DHT22;9939;49.246;9.106;2023-03-22T05:50:00;8.20;99.90
19586;DHT22;9939;49.246;9.106;2023-03-22T05:52:28;8.20;99.90
19586;DHT22;9939;49.246;9.106;2023-03-22T05:55:18;8.10;99.90
19586;DHT22;9939;49.246;9.106;2023-03-22T05:57:47;8.10;99.90
19586;DHT22;9939;49.246;9.106;2023-03-22T06:00:17;8.00;99.90
19586;DHT22;9939;49.246;9.106;2023-03-22T06:03:10;7.90;99.90
19586;DHT22;9939;49.246;9.106;2023-03-22T06:05:41;8.00;99.90
19586;DHT22;9939;49.246;9.106;2023-03-22T06:08:08;8.10;99.90
19586;DHT22;9939;49.246;9.106;2023-03-22T06:10:36;8.40;99.90
19586;DHT22;9939;49.246;9.106;2023-03-22T06:13:03;8.50;99.90
19586;DHT22;9939;49.246;9.106;2023-03-22T06:15:32;8.60;99.90
19586;DHT22;9939;49.246;9.106;2023-03-22T06:18:04;8.80;99.90
19586;DHT22;9939;49.246;9.106;2023-03-22T06:20:38;8.70;99.90
19586;DHT22;9939;49.246;9.106;2023-03-22T06:23:12;8.80;99.90
19586;DHT22;9939;49.246;9.106;2023-03-22T06:25:42;8.70;99.90
19586;DHT22;9939;49.246;9.106;2023-03-22T06:28:09;8.70;99.90
19586;DHT22;9939;49.246;9.106;2023-03-22T06:30:38;8.70;99.90
19586;DHT22;9939;49.246;9.106;2023-03-22T06:33:14;8.70;99.90
19586;DHT22;9939;49.246;9.106;2023-03-22T06:35:45;8.70;99.90
19586;DHT22;9939;49.246;9.106;2023-03-22T06:38:19;8.80;99.90
19586;DHT22;9939;49.246;9.106;2023-03-22T06:40:46;8.90;99.90
19586;DHT22;9939;49.246;9.106;2023-03-22T06:43:13;9.10;99.90
19586;DHT22;9939;49.246;9.106;2023-03-22T06:45:47;9.30;99.90
19586;DHT22;9939;49.246;9.106;2023-03-22T06:48:19;9.50;99.90
19586;DHT22;9939;49.246;9.106;2023-03-22T06:51:09;9.70;99.90
19586;DHT22;9939;49.246;9.106;2023-03-22T06:53:36;9.90;99.90
19586;DHT22;9939;49.246;9.106;2023-03-22T06:56:04;10.10;99.90
19586;DHT22;9939;49.246;9.106;2023-03-22T06:58:41;10.30;99.90
19586;DHT22;9939;49.246;9.106;2023-03-22T07:01:08;10.50;99.90
19586;DHT22;9939;49.246;9.106;2023-03-22T07:03:35;10.50;99.90
19586;DHT22;9939;49.246;9.106;2023-03-22T07:06:08;10.50;99.90
19586;DHT22;9939;49.246;9.106;2023-03-22T07:08:39;10.90;99.90
19586;DHT22;9939;49.246;9.106;2023-03-22T07:11:08;11.10;99.90
19586;DHT22;9939;49.246;9.106;2023-03-22T07:13:35;11.30;99.90
19586;DHT22;9939;49.246;9.106;2023-03-22T07:16:08;11.50;99.90
19586;DHT22;9939;49.246;9.106;2023-03-22T07:18:58;11.70;99.90
19586;DHT22;9939;49.246;9.106;2023-03-22T07:21:25;12.10;99.90
19586;DHT22;9939;49.246;9.106;2023-03-22T07:23:56;12.60;99.90
19586;DHT22;9939;49.246;9.106;2023-03-22T07:26:27;13.20;99.90
19586;DHT22;9939;49.246;9.106;2023-03-22T07:28:57;13.50;99.90
19586;DHT22;9939;49.246;9.106;2023-03-22T07:31:28;13.10;99.90
19586;DHT22;9939;49.246;9.106;2023-03-22T07:34:00;13.20;99.90
19586;DHT22;9939;49.246;9.106;2023-03-22T07:36:30;13.20;99.90
19586;DHT22;9939;49.246;9.106;2023-03-22T07:38:57;13.20;99.90
19586;DHT22;9939;49.246;9.106;2023-03-22T07:41:31;13.20;99.90
19586;DHT22;9939;49.246;9.106;2023-03-22T07:44:19;13.10;99.90
19586;DHT22;9939;49.246;9.106;2023-03-22T07:46:59;13.30;99.90
19586;DHT22;9939;49.246;9.106;2023-03-22T07:49:35;13.30;99.90
19586;DHT22;9939;49.246;9.106;2023-03-22T07:52:06;13.50;99.90
19586;DHT22;9939;49.246;9.106;2023-03-22T07:54:33;13.70;99.90
19586;DHT22;9939;49.246;9.106;2023-03-22T07:57:03;14.20;99.90
19586;DHT22;9939;49.246;9.106;2023-03-22T07:59:34;14.50;99.90
19586;DHT22;9939;49.246;9.106;2023-03-22T08:02:03;14.10;99.90
19586;DHT22;9939;49.246;9.106;2023-03-22T08:04:36;14.40;99.90
19586;DHT22;9939;49.246;9.106;2023-03-22T08:07:10;14.90;99.90
19586;DHT22;9939;49.246;9.106;2023-03-22T08:09:37;15.50;99.90
19586;DHT22;9939;49.246;9.106;2023-03-22T08:12:04;15.60;99.90
19586;DHT22;9939;49.246;9.106;2023-03-22T08:14:33;16.00;99.90
19586;DHT22;9939;49.246;9.106;2023-03-22T08:17:07;16.20;99.90
19586;DHT22;9939;49.246;9.106;2023-03-22T08:19:34;16.70;99.90
19586;DHT22;9939;49.246;9.106;2023-03-22T08:22:01;16.40;99.90
19586;DHT22;9939;49.246;9.106;2023-03-22T08:24:54;16.20;99.90
19586;DHT22;9939;49.246;9.106;2023-03-22T08:27:25;16.10;99.90
19586;DHT22;9939;49.246;9.106;2023-03-22T08:29:55;15.90;99.90
19586;DHT22;9939;49.246;9.106;2023-03-22T08:32:22;15.70;99.90
19586;DHT22;9939;49.246;9.106;2023-03-22T08:34:48;15.70;99.90
19586;DHT22;9939;49.246;9.106;2023-03-22T08:37:16;15.70;99.90
19586;DHT22;9939;49.246;9.106;2023-03-22T08:39:46;15.30;99.90
19586;DHT22;9939;49.246;9.106;2023-03-22T08:42:34;15.30;99.90
19586;DHT22;9939;49.246;9.106;2023-03-22T08:45:02;15.20;99.90
19586;DHT22;9939;49.246;9.106;2023-03-22T08:47:31;14.90;99.90
19586;DHT22;9939;49.246;9.106;2023-03-22T08:50:01;15.10;99.90
19586;DHT22;9939;49.246;9.106;2023-03-22T08:52:50;15.50;99.90
19586;DHT22;9939;49.246;9.106;2023-03-22T08:55:30;16.10;99.90
19586;DHT22;9939;49.246;9.106;2023-03-22T08:58:10;16.20;99.90
19586;DHT22;9939;49.246;9.106;2023-03-22T09:01:06;16.10;99.90
19586;DHT22;9939;49.246;9.106;2023-03-22T09:03:56;16.20;99.90
19586;DHT22;9939;49.246;9.106;2023-03-22T09:06:24;17.00;99.90
19586;DHT22;9939;49.246;9.106;2023-03-22T09:08:52;17.00;99.90
19586;DHT22;9939;49.246;9.106;2023-03-22T09:11:21;17.50;99.90
19586;DHT22;9939;49.246;9.106;2023-03-22T09:13:48;18.40;99.90
19586;DHT22;9939;49.246;9.106;2023-03-22T09:16:16;18.20;99.90
19586;DHT22;9939;49.246;9.106;2023-03-22T09:18:44;18.50;99.90
19586;DHT22;9939;49.246;9.106;2023-03-22T09:21:15;19.70;99.90
19586;DHT22;9939;49.246;9.106;2023-03-22T09:23:52;20.20;99.90
19586;DHT22;9939;49.246;9.106;2023-03-22T09:26:24;20.70;99.90
19586;DHT22;9939;49.246;9.106;2023-03-22T09:28:53;20.20;99.90
19586;DHT22;9939;49.246;9.106;2023-03-22T09:31:20;20.50;99.90
19586;DHT22;9939;49.246;9.106;2023-03-22T09:33:59;20.30;99.90
19586;DHT22;9939;49.246;9.106;2023-03-22T09:36:26;21.50;99.90
19586;DHT22;9939;49.246;9.106;2023-03-22T09:38:52;22.40;99.90
19586;DHT22;9939;49.246;9.106;2023-03-22T09:41:23;23.00;99.90
19586;DHT22;9939;49.246;9.106;2023-03-22T09:43:52;22.80;99.90
19586;DHT22;9939;49.246;9.106;2023-03-22T09:46:26;22.70;99.90
19586;DHT22;9939;49.246;9.106;2023-03-22T09:48:54;21.80;99.90
19586;DHT22;9939;49.246;9.106;2023-03-22T09:53:55;20.00;99.90
19586;DHT22;9939;49.246;9.106;2023-03-22T09:56:22;19.30;99.90
19586;DHT22;9939;49.246;9.106;2023-03-22T09:58:52;19.00;99.90
19586;DHT22;9939;49.246;9.106;2023-03-22T10:01:26;17.60;99.90
19586;DHT22;9939;49.246;9.106;2023-03-22T10:06:27;18.80;99.90
19586;DHT22;9939;49.246;9.106;2023-03-22T10:09:10;20.10;99.90
19586;DHT22;9939;49.246;9.106;2023-03-22T10:11:41;20.40;99.90
19586;DHT22;9939;49.246;9.106;2023-03-22T10:14:26;21.60;99.90
19586;DHT22;9939;49.246;9.106;2023-03-22T10:16:55;20.80;99.90
19586;DHT22;9939;49.246;9.106;2023-03-22T10:19:24;21.00;99.90
19586;DHT22;9939;49.246;9.106;2023-03-22T10:21:53;22.10;99.90
19586;DHT22;9939;49.246;9.106;2023-03-22T10:24:23;22.90;99.90
19586;DHT22;9939;49.246;9.106;2023-03-22T10:26:51;23.30;99.90
19586;DHT22;9939;49.246;9.106;2023-03-22T10:31:48;23.40;99.90
19586;DHT22;9939;49.246;9.106;2023-03-22T10:34:20;23.60;99.90
19586;DHT22;9939;49.246;9.106;2023-03-22T10:36:48;23.30;99.90
19586;DHT22;9939;49.246;9.106;2023-03-22T10:41:42;21.90;99.90
19586;DHT22;9939;49.246;9.106;2023-03-22T10:44:12;21.30;99.90
19586;DHT22;9939;49.246;9.106;2023-03-22T10:46:41;20.20;99.90
19586;DHT22;9939;49.246;9.106;2023-03-22T10:49:11;19.70;99.90
19586;DHT22;9939;49.246;9.106;2023-03-22T10:51:40;20.70;99.90
19586;DHT22;9939;49.246;9.106;2023-03-22T10:54:11;21.60;99.90
19586;DHT22;9939;49.246;9.106;2023-03-22T10:56:39;21.90;99.90
19586;DHT22;9939;49.246;9.106;2023-03-22T10:59:06;22.20;99.90
19586;DHT22;9939;49.246;9.106;2023-03-22T11:01:34;20.60;99.90
19586;DHT22;9939;49.246;9.106;2023-03-22T11:04:06;19.70;99.90
19586;DHT22;9939;49.246;9.106;2023-03-22T11:06:37;20.10;99.90
19586;DHT22;9939;49.246;9.106;2023-03-22T11:11:35;20.00;99.90
19586;DHT22;9939;49.246;9.106;2023-03-22T11:14:04;20.50;99.90
19586;DHT22;9939;49.246;9.106;2023-03-22T11:16:39;20.30;99.90
19586;DHT22;9939;49.246;9.106;2023-03-22T11:19:09;19.80;99.90
19586;DHT22;9939;49.246;9.106;2023-03-22T11:21:40;19.80;99.90
19586;DHT22;9939;49.246;9.106;2023-03-22T11:24:09;19.70;99.90
19586;DHT22;9939;49.246;9.106;2023-03-22T11:26:38;19.90;99.90
19586;DHT22;9939;49.246;9.106;2023-03-22T11:29:12;19.80;99.90
19586;DHT22;9939;49.246;9.106;2023-03-22T11:34:16;21.30;99.90
19586;DHT22;9939;49.246;9.106;2023-03-22T11:36:44;21.90;99.90
19586;DHT22;9939;49.246;9.106;2023-03-22T11:39:11;22.50;99.90
19586;DHT22;9939;49.246;9.106;2023-03-22T11:41:38;22.50;99.90
19586;DHT22;9939;49.246;9.106;2023-03-22T11:44:06;22.40;99.90
19586;DHT22;9939;49.246;9.106;2023-03-22T11:46:35;22.00;99.90
19586;DHT22;9939;49.246;9.106;2023-03-22T11:49:04;22.20;99.90
19586;DHT22;9939;49.246;9.106;2023-03-22T11:51:33;22.60;99.90
19586;DHT22;9939;49.246;9.106;2023-03-22T11:56:34;23.20;99.90
19586;DHT22;9939;49.246;9.106;2023-03-22T11:59:44;23.30;99.90
19586;DHT22;9939;49.246;9.106;2023-03-22T12:02:16;23.20;99.90
19586;DHT22;9939;49.246;9.106;2023-03-22T12:04:45;24.00;99.90
19586;DHT22;9939;49.246;9.106;2023-03-22T12:07:14;23.80;99.10
19586;DHT22;9939;49.246;9.106;2023-03-22T12:10:17;22.90;99.20
19586;DHT22;9939;49.246;9.106;2023-03-22T12:12:35;22.40;99.90
19586;DHT22;9939;49.246;9.106;2023-03-22T12:17:40;21.50;99.90
19586;DHT22;9939;49.246;9.106;2023-03-22T12:20:20;22.00;99.90
19586;DHT22;9939;49.246;9.106;2023-03-22T12:22:53;22.70;99.90
19586;DHT22;9939;49.246;9.106;2023-03-22T12:25:24;23.20;98.80
19586;DHT22;9939;49.246;9.106;2023-03-22T12:27:53;23.00;99.50
19586;DHT22;9939;49.246;9.106;2023-03-22T12:30:23;23.00;99.20
19586;DHT22;9939;49.246;9.106;2023-03-22T12:35:19;24.10;98.20
19586;DHT22;9939;49.246;9.106;2023-03-22T12:37:48;25.30;97.20
19586;DHT22;9939;49.246;9.106;2023-03-22T12:45:27;25.30;95.40
19586;DHT22;9939;49.246;9.106;2023-03-22T12:47:57;25.80;95.30
19586;DHT22;9939;49.246;9.106;2023-03-22T12:52:59;27.30;93.70
19586;DHT22;9939;49.246;9.106;2023-03-22T12:55:28;26.40;93.20
19586;DHT22;9939;49.246;9.106;2023-03-22T12:57:56;26.40;93.50
19586;DHT22;9939;49.246;9.106;2023-03-22T13:00:27;26.50;93.20
19586;DHT22;9939;49.246;9.106;2023-03-22T13:02:58;26.50;93.80
19586;DHT22;9939;49.246;9.106;2023-03-22T13:05:28;26.70;93.40
19586;DHT22;9939;49.246;9.106;2023-03-22T13:07:55;26.70;93.60
19586;DHT22;9939;49.246;9.106;2023-03-22T13:15:38;29.70;90.70
19586;DHT22;9939;49.246;9.106;2023-03-22T13:21:08;29.80;89.30
19586;DHT22;9939;49.246;9.106;2023-03-22T13:23:35;29.50;87.30
19586;DHT22;9939;49.246;9.106;2023-03-22T13:26:17;27.90;88.60
19586;DHT22;9939;49.246;9.106;2023-03-22T13:28:57;28.30;89.70
19586;DHT22;9939;49.246;9.106;2023-03-22T13:31:41;29.00;88.00
19586;DHT22;9939;49.246;9.106;2023-03-22T13:34:12;29.40;88.20
19586;DHT22;9939;49.246;9.106;2023-03-22T13:36:41;27.70;87.40
19586;DHT22;9939;49.246;9.106;2023-03-22T13:39:13;25.30;90.40
19586;DHT22;9939;49.246;9.106;2023-03-22T13:41:42;23.40;92.50
19586;DHT22;9939;49.246;9.106;2023-03-22T13:44:24;22.50;93.90
19586;DHT22;9939;49.246;9.106;2023-03-22T13:46:53;22.40;94.00
19586;DHT22;9939;49.246;9.106;2023-03-22T13:49:39;23.00;94.50
19586;DHT22;9939;49.246;9.106;2023-03-22T13:52:08;25.40;92.70
19586;DHT22;9939;49.246;9.106;2023-03-22T13:54:40;27.70;90.10
19586;DHT22;9939;49.246;9.106;2023-03-22T13:57:14;27.80;87.80
19586;DHT22;9939;49.246;9.106;2023-03-22T14:02:45;27.90;87.80
19586;DHT22;9939;49.246;9.106;2023-03-22T14:05:15;26.40;87.90
19586;DHT22;9939;49.246;9.106;2023-03-22T14:15:14;27.70;84.10
19586;DHT22;9939;49.246;9.106;2023-03-22T14:17:44;25.50;88.60
19586;DHT22;9939;49.246;9.106;2023-03-22T14:20:16;24.70;90.60
19586;DHT22;9939;49.246;9.106;2023-03-22T14:22:49;24.30;91.20
19586;DHT22;9939;49.246;9.106;2023-03-22T14:25:17;24.20;91.60
19586;DHT22;9939;49.246;9.106;2023-03-22T14:27:44;24.70;91.10
19586;DHT22;9939;49.246;9.106;2023-03-22T14:32:51;22.60;92.80
19586;DHT22;9939;49.246;9.106;2023-03-22T14:35:25;22.10;94.80
19586;DHT22;9939;49.246;9.106;2023-03-22T14:37:58;21.40;95.00
19586;DHT22;9939;49.246;9.106;2023-03-22T14:40:30;20.80;96.20
19586;DHT22;9939;49.246;9.106;2023-03-22T14:43:10;21.00;96.90
19586;DHT22;9939;49.246;9.106;2023-03-22T14:45:36;22.70;95.80
19586;DHT22;9939;49.246;9.106;2023-03-22T14:48:02;25.50;93.10
19586;DHT22;9939;49.246;9.106;2023-03-22T14:50:33;26.00;91.50
19586;DHT22;9939;49.246;9.106;2023-03-22T14:52:59;26.30;91.30
19586;DHT22;9939;49.246;9.106;2023-03-22T14:55:25;26.30;90.30
19586;DHT22;9939;49.246;9.106;2023-03-22T14:57:56;27.10;89.30
19586;DHT22;9939;49.246;9.106;2023-03-22T15:00:22;27.70;87.20
19586;DHT22;9939;49.246;9.106;2023-03-22T15:05:23;26.90;88.70
19586;DHT22;9939;49.246;9.106;2023-03-22T15:07:51;26.90;88.90
19586;DHT22;9939;49.246;9.106;2023-03-22T15:10:19;26.20;89.00
19586;DHT22;9939;49.246;9.106;2023-03-22T15:12:46;25.70;90.40
19586;DHT22;9939;49.246;9.106;2023-03-22T15:15:13;25.60;90.10
19586;DHT22;9939;49.246;9.106;2023-03-22T15:17:41;25.20;91.40
19586;DHT22;9939;49.246;9.106;2023-03-22T15:20:09;24.20;91.00
19586;DHT22;9939;49.246;9.106;2023-03-22T15:22:36;22.60;92.90
19586;DHT22;9939;49.246;9.106;2023-03-22T15:25:02;21.60;94.00
19586;DHT22;9939;49.246;9.106;2023-03-22T15:27:29;20.70;95.30
19586;DHT22;9939;49.246;9.106;2023-03-22T15:29:55;20.10;96.30
19586;DHT22;9939;49.246;9.106;2023-03-22T15:32:21;19.60;97.40
19586;DHT22;9939;49.246;9.106;2023-03-22T15:34:49;19.40;98.10
19586;DHT22;9939;49.246;9.106;2023-03-22T15:37:31;19.10;98.60
19586;DHT22;9939;49.246;9.106;2023-03-22T15:39:58;19.00;99.10
19586;DHT22;9939;49.246;9.106;2023-03-22T15:45:01;19.00;99.90
19586;DHT22;9939;49.246;9.106;2023-03-22T15:47:31;19.00;99.80
19586;DHT22;9939;49.246;9.106;2023-03-22T15:50:07;19.00;99.80
19586;DHT22;9939;49.246;9.106;2023-03-22T15:52:33;18.90;99.90
19586;DHT22;9939;49.246;9.106;2023-03-22T15:55:04;19.00;99.90
19586;DHT22;9939;49.246;9.106;2023-03-22T16:02:32;18.90;99.90
19586;DHT22;9939;49.246;9.106;2023-03-22T16:04:58;18.90;99.90
19586;DHT22;9939;49.246;9.106;2023-03-22T16:07:26;19.00;99.90
19586;DHT22;9939;49.246;9.106;2023-03-22T16:09:52;18.90;99.90
19586;DHT22;9939;49.246;9.106;2023-03-22T16:12:19;18.80;99.90
19586;DHT22;9939;49.246;9.106;2023-03-22T16:14:45;18.80;99.90
19586;DHT22;9939;49.246;9.106;2023-03-22T16:17:29;18.80;99.90
19586;DHT22;9939;49.246;9.106;2023-03-22T16:19:55;18.70;99.90
19586;DHT22;9939;49.246;9.106;2023-03-22T16:22:21;18.60;99.90
19586;DHT22;9939;49.246;9.106;2023-03-22T16:24:46;18.40;99.90
19586;DHT22;9939;49.246;9.106;2023-03-22T16:27:17;18.40;99.90
19586;DHT22;9939;49.246;9.106;2023-03-22T16:29:43;18.30;99.90
19586;DHT22;9939;49.246;9.106;2023-03-22T16:32:12;18.20;99.90
19586;DHT22;9939;49.246;9.106;2023-03-22T16:34:39;18.10;99.90
19586;DHT22;9939;49.246;9.106;2023-03-22T16:37:15;18.00;99.90
19586;DHT22;9939;49.246;9.106;2023-03-22T16:39:42;17.80;99.90
19586;DHT22;9939;49.246;9.106;2023-03-22T16:42:18;17.70;99.90
19586;DHT22;9939;49.246;9.106;2023-03-22T16:44:50;17.70;99.90
19586;DHT22;9939;49.246;9.106;2023-03-22T16:47:20;17.50;99.90
19586;DHT22;9939;49.246;9.106;2023-03-22T16:49:50;17.50;99.90
19586;DHT22;9939;49.246;9.106;2023-03-22T16:52:17;17.30;99.90
19586;DHT22;9939;49.246;9.106;2023-03-22T16:54:47;17.30;99.90
19586;DHT22;9939;49.246;9.106;2023-03-22T16:57:13;17.20;99.90
19586;DHT22;9939;49.246;9.106;2023-03-22T16:59:39;16.90;99.90
19586;DHT22;9939;49.246;9.106;2023-03-22T17:02:10;16.80;99.90
19586;DHT22;9939;49.246;9.106;2023-03-22T17:04:36;16.50;99.90
19586;DHT22;9939;49.246;9.106;2023-03-22T17:07:02;16.40;99.90
19586;DHT22;9939;49.246;9.106;2023-03-22T17:09:28;16.20;99.90
19586;DHT22;9939;49.246;9.106;2023-03-22T17:11:54;16.10;99.90
19586;DHT22;9939;49.246;9.106;2023-03-22T17:14:19;16.00;99.90
19586;DHT22;9939;49.246;9.106;2023-03-22T17:16:45;15.90;99.90
19586;DHT22;9939;49.246;9.106;2023-03-22T17:19:11;15.80;99.90
19586;DHT22;9939;49.246;9.106;2023-03-22T17:21:37;15.60;99.90
19586;DHT22;9939;49.246;9.106;2023-03-22T17:24:02;15.60;99.90
19586;DHT22;9939;49.246;9.106;2023-03-22T17:26:28;15.50;99.90
19586;DHT22;9939;49.246;9.106;2023-03-22T17:28:54;15.50;99.90
19586;DHT22;9939;49.246;9.106;2023-03-22T17:31:20;15.40;99.90
19586;DHT22;9939;49.246;9.106;2023-03-22T17:33:46;15.30;99.90
19586;DHT22;9939;49.246;9.106;2023-03-22T17:36:14;15.30;99.90
19586;DHT22;9939;49.246;9.106;2023-03-22T17:38:40;15.10;99.90
19586;DHT22;9939;49.246;9.106;2023-03-22T17:41:06;15.00;99.90
19586;DHT22;9939;49.246;9.106;2023-03-22T17:43:32;14.90;99.90
19586;DHT22;9939;49.246;9.106;2023-03-22T17:45:58;14.80;99.90
19586;DHT22;9939;49.246;9.106;2023-03-22T17:48:24;14.80;99.90
19586;DHT22;9939;49.246;9.106;2023-03-22T17:50:51;14.80;99.90
19586;DHT22;9939;49.246;9.106;2023-03-22T17:53:17;14.70;99.90
19586;DHT22;9939;49.246;9.106;2023-03-22T17:55:44;14.70;99.90
19586;DHT22;9939;49.246;9.106;2023-03-22T17:58:10;14.60;99.90